Time;durP1;ratioP1;P1;durP2;ratioP2;P2;SDS_P1;SDS_P2;PMS_P1;PMS_P2;Temp;Humidity;BMP_temperature;BMP_pressure;BME280_temperature;BME280_humidity;BME280_pressure;Samples;Min_cycle;Max_cycle;Signal;HPM_P1;HPM_P2
2023/07/05 00:00:08;;;;;;;11.40;8.67;;;;;;;;;;5062049;28;20283;-63
2023/07/05 00:02:33;;;;;;;10.73;8.55;;;;;;;;;;5026400;28;20508;-60
2023/07/05 00:04:58;;;;;;;11.03;9.40;;;;;;;;;;5058777;28;20724;-61
2023/07/05 00:07:23;;;;;;;10.70;8.20;;;;;;;;;;5062246;28;20566;-61
2023/07/05 00:09:49;;;;;;;12.23;8.97;;;;;;;;;;5057394;28;20553;-60
2023/07/05 00:12:14;;;;;;;11.90;8.77;;;;;;;;;;5063846;28;20286;-59
2023/07/05 00:14:39;;;;;;;12.13;9.13;;;;;;;;;;5064204;28;20287;-61
2023/07/05 00:17:04;;;;;;;11.17;9.03;;;;;;;;;;5058823;28;20047;-61
2023/07/05 00:19:30;;;;;;;11.53;9.23;;;;;;;;;;5044488;28;20069;-63
2023/07/05 00:21:55;;;;;;;12.70;9.40;;;;;;;;;;5042391;28;20802;-60
2023/07/05 00:24:20;;;;;;;11.52;9.27;;;;;;;;;;5064041;28;20402;-60
2023/07/05 00:26:45;;;;;;;10.93;8.60;;;;;;;;;;5046154;28;20064;-60
2023/07/05 00:29:11;;;;;;;12.93;9.50;;;;;;;;;;5061431;28;20474;-62
2023/07/05 00:31:36;;;;;;;12.00;8.93;;;;;;;;;;5054781;28;20366;-63
2023/07/05 00:34:01;;;;;;;13.07;9.40;;;;;;;;;;5063285;28;20288;-62
2023/07/05 00:36:26;;;;;;;13.57;9.37;;;;;;;;;;5066263;28;20097;-62
2023/07/05 00:38:52;;;;;;;11.10;9.43;;;;;;;;;;5055695;28;20056;-63
2023/07/05 00:41:17;;;;;;;10.60;8.70;;;;;;;;;;5039902;28;20294;-62
2023/07/05 00:43:48;;;;;;;10.03;8.43;;;;;;;;;;5053994;28;20811;-60
2023/07/05 00:46:15;;;;;;;11.88;9.50;;;;;;;;;;5057101;28;20036;-62
2023/07/05 00:48:51;;;;;;;12.02;9.38;;;;;;;;;;5057737;28;20029;-60
2023/07/05 00:51:19;;;;;;;10.48;8.80;;;;;;;;;;5057662;28;20495;-60
2023/07/05 00:53:45;;;;;;;11.90;8.68;;;;;;;;;;5067316;28;20127;-62
2023/07/05 00:56:16;;;;;;;11.33;9.17;;;;;;;;;;5067430;28;20158;-62
2023/07/05 00:58:41;;;;;;;10.70;9.02;;;;;;;;;;5058293;28;20365;-63
2023/07/05 01:01:07;;;;;;;13.45;9.65;;;;;;;;;;5016827;28;20049;-61
2023/07/05 01:03:32;;;;;;;11.63;9.02;;;;;;;;;;5064150;28;20045;-62
2023/07/05 01:05:58;;;;;;;13.40;9.53;;;;;;;;;;5034092;28;20039;-62
2023/07/05 01:08:23;;;;;;;11.70;8.82;;;;;;;;;;5061545;28;20048;-61
2023/07/05 01:10:52;;;;;;;11.90;9.50;;;;;;;;;;5018814;28;20036;-61
2023/07/05 01:13:45;;;;;;;10.80;8.43;;;;;;;;;;5065403;28;20177;-62
2023/07/05 01:16:15;;;;;;;13.30;9.77;;;;;;;;;;5055202;28;20068;-62
2023/07/05 01:18:50;;;;;;;13.07;8.98;;;;;;;;;;5054309;28;20102;-60
2023/07/05 01:21:34;;;;;;;11.68;9.27;;;;;;;;;;5045063;28;20059;-60
2023/07/05 01:24:00;;;;;;;11.57;8.57;;;;;;;;;;5046759;28;20040;-62
2023/07/05 01:26:34;;;;;;;10.55;9.10;;;;;;;;;;5046992;28;20033;-61
2023/07/05 01:29:18;;;;;;;12.27;8.70;;;;;;;;;;5053171;28;20028;-62
2023/07/05 01:32:19;;;;;;;12.93;8.95;;;;;;;;;;5066433;28;20040;-61
2023/07/05 01:35:04;;;;;;;12.05;9.43;;;;;;;;;;5043879;28;20476;-60
2023/07/05 01:37:33;;;;;;;14.60;9.50;;;;;;;;;;5045618;28;20057;-62
2023/07/05 01:39:58;;;;;;;12.15;9.50;;;;;;;;;;5050947;28;20541;-61
2023/07/05 01:42:26;;;;;;;14.10;10.23;;;;;;;;;;5065945;28;20134;-62
2023/07/05 01:44:51;;;;;;;10.73;9.07;;;;;;;;;;5066394;28;20024;-60
2023/07/05 01:47:17;;;;;;;12.87;8.93;;;;;;;;;;5052494;28;20036;-61
2023/07/05 01:49:52;;;;;;;11.52;8.77;;;;;;;;;;5042683;28;20336;-62
2023/07/05 01:52:23;;;;;;;11.23;8.88;;;;;;;;;;5054934;28;20079;-61
2023/07/05 01:54:53;;;;;;;12.43;9.30;;;;;;;;;;5056910;28;20045;-61
2023/07/05 01:57:27;;;;;;;14.38;10.02;;;;;;;;;;5046338;28;20045;-62
2023/07/05 01:59:55;;;;;;;12.90;9.50;;;;;;;;;;5042462;28;20457;-61
2023/07/05 02:02:22;;;;;;;14.52;9.02;;;;;;;;;;5047738;28;20391;-61
2023/07/05 02:04:47;;;;;;;12.30;9.35;;;;;;;;;;5047395;28;20036;-62
2023/07/05 02:07:12;;;;;;;11.10;9.05;;;;;;;;;;5064477;28;20033;-61
2023/07/05 02:09:38;;;;;;;10.73;9.05;;;;;;;;;;5054920;28;20551;-62
2023/07/05 02:12:06;;;;;;;12.05;9.90;;;;;;;;;;5015653;28;20044;-60
2023/07/05 02:14:32;;;;;;;11.50;9.27;;;;;;;;;;5058594;28;20052;-62
2023/07/05 02:16:57;;;;;;;10.80;8.73;;;;;;;;;;5052056;28;20043;-61
2023/07/05 02:19:22;;;;;;;11.97;9.07;;;;;;;;;;5054661;28;20271;-60
2023/07/05 02:21:47;;;;;;;10.90;8.90;;;;;;;;;;5052478;28;20746;-60
2023/07/05 02:24:13;;;;;;;11.73;9.48;;;;;;;;;;5045503;28;20109;-61
2023/07/05 02:26:38;;;;;;;11.57;9.17;;;;;;;;;;5032339;28;20857;-61
2023/07/05 02:29:03;;;;;;;11.40;9.00;;;;;;;;;;5060140;28;20276;-61
2023/07/05 02:31:29;;;;;;;11.97;9.00;;;;;;;;;;5055427;28;20408;-60
2023/07/05 02:33:54;;;;;;;11.30;9.00;;;;;;;;;;5059463;28;20444;-62
2023/07/05 02:36:19;;;;;;;11.13;9.10;;;;;;;;;;5045526;28;20049;-61
2023/07/05 02:38:45;;;;;;;12.52;9.15;;;;;;;;;;5047066;28;20069;-61
2023/07/05 02:41:10;;;;;;;10.63;8.73;;;;;;;;;;5057427;28;20033;-62
2023/07/05 02:43:35;;;;;;;12.20;8.60;;;;;;;;;;5029149;28;20084;-61
2023/07/05 02:46:00;;;;;;;11.23;8.43;;;;;;;;;;5049813;28;20044;-60
2023/07/05 02:48:26;;;;;;;11.90;9.13;;;;;;;;;;5065862;28;20623;-62
2023/07/05 02:50:51;;;;;;;12.37;9.33;;;;;;;;;;5050781;28;20282;-60
2023/07/05 02:53:16;;;;;;;12.00;8.50;;;;;;;;;;5064892;28;20036;-61
2023/07/05 02:55:42;;;;;;;10.37;8.53;;;;;;;;;;5065023;28;20531;-66
2023/07/05 02:58:08;;;;;;;11.85;8.32;;;;;;;;;;5065695;28;20279;-61
2023/07/05 03:00:33;;;;;;;12.38;9.20;;;;;;;;;;5051543;28;20063;-61
2023/07/05 03:02:58;;;;;;;10.80;8.77;;;;;;;;;;5046928;28;20041;-59
2023/07/05 03:05:24;;;;;;;11.55;8.73;;;;;;;;;;5043210;28;20071;-61
2023/07/05 03:07:49;;;;;;;13.23;8.70;;;;;;;;;;5045213;28;20041;-62
2023/07/05 03:10:14;;;;;;;11.47;8.83;;;;;;;;;;5044710;28;20363;-62
2023/07/05 03:12:39;;;;;;;11.87;8.77;;;;;;;;;;5062960;28;20654;-60
2023/07/05 03:15:05;;;;;;;13.00;8.93;;;;;;;;;;5065024;28;20279;-62
2023/07/05 03:17:30;;;;;;;12.95;9.30;;;;;;;;;;5048554;28;20029;-60
2023/07/05 03:19:57;;;;;;;11.63;9.27;;;;;;;;;;5034925;28;20272;-61
2023/07/05 03:22:22;;;;;;;12.05;8.88;;;;;;;;;;5048681;28;20120;-60
2023/07/05 03:24:49;;;;;;;12.20;9.67;;;;;;;;;;5044847;28;20577;-63
2023/07/05 03:27:14;;;;;;;13.38;9.50;;;;;;;;;;5031680;28;20790;-61
2023/07/05 03:29:39;;;;;;;12.20;9.57;;;;;;;;;;5059690;28;20091;-62
2023/07/05 03:32:07;;;;;;;11.53;9.77;;;;;;;;;;5039789;28;20689;-61
2023/07/05 03:34:32;;;;;;;12.48;9.60;;;;;;;;;;5064562;28;20056;-60
2023/07/05 03:36:57;;;;;;;12.27;9.50;;;;;;;;;;5064599;28;20478;-60
2023/07/05 03:39:22;;;;;;;12.37;9.30;;;;;;;;;;5062817;28;20338;-61
2023/07/05 03:41:47;;;;;;;12.87;9.53;;;;;;;;;;5054327;28;20029;-62
2023/07/05 03:44:13;;;;;;;12.13;9.20;;;;;;;;;;5064470;28;20495;-62
2023/07/05 03:46:38;;;;;;;12.33;9.87;;;;;;;;;;5056349;28;20064;-61
2023/07/05 03:49:03;;;;;;;14.10;9.93;;;;;;;;;;5044305;28;20048;-61
2023/07/05 03:51:28;;;;;;;16.27;10.10;;;;;;;;;;5054780;28;20287;-60
2023/07/05 03:53:55;;;;;;;12.60;9.63;;;;;;;;;;5044497;28;20761;-61
2023/07/05 03:56:20;;;;;;;11.70;9.88;;;;;;;;;;5026571;28;20699;-61
2023/07/05 03:58:45;;;;;;;11.98;9.57;;;;;;;;;;5041553;28;20171;-60
2023/07/05 04:01:15;;;;;;;12.68;8.98;;;;;;;;;;5051792;28;20128;-60
2023/07/05 04:03:40;;;;;;;;;;;;;;;;;;5030745;28;20500;-61
2023/07/05 04:06:06;;;;;;;12.32;8.98;;;;;;;;;;5055911;28;20333;-61
2023/07/05 04:08:31;;;;;;;11.77;8.77;;;;;;;;;;5064873;28;20129;-60
2023/07/05 04:10:56;;;;;;;11.07;9.17;;;;;;;;;;5053457;28;20365;-60
2023/07/05 04:13:21;;;;;;;12.40;9.35;;;;;;;;;;5042521;28;20572;-63
2023/07/05 04:15:47;;;;;;;13.23;10.10;;;;;;;;;;5059190;28;20044;-62
2023/07/05 04:18:12;;;;;;;11.87;9.57;;;;;;;;;;5046508;28;20317;-62
2023/07/05 04:20:37;;;;;;;12.30;9.20;;;;;;;;;;5060737;28;20048;-62
2023/07/05 04:23:03;;;;;;;11.98;9.43;;;;;;;;;;5038875;28;20078;-60
2023/07/05 04:25:28;;;;;;;11.40;9.27;;;;;;;;;;5058206;28;20164;-61
2023/07/05 04:27:53;;;;;;;11.80;8.85;;;;;;;;;;5058419;28;20293;-62
2023/07/05 04:30:18;;;;;;;12.77;9.70;;;;;;;;;;5054341;28;20260;-62
2023/07/05 04:32:43;;;;;;;12.00;9.40;;;;;;;;;;5045461;28;20032;-61
2023/07/05 04:35:09;;;;;;;11.87;9.80;;;;;;;;;;5037598;28;20060;-59
2023/07/05 04:37:34;;;;;;;10.68;9.02;;;;;;;;;;5057847;28;20033;-62
2023/07/05 04:39:59;;;;;;;13.63;9.57;;;;;;;;;;5041827;28;20050;-60
2023/07/05 04:42:25;;;;;;;12.60;9.40;;;;;;;;;;5059705;28;20294;-60
2023/07/05 04:44:50;;;;;;;10.57;9.40;;;;;;;;;;5056050;28;20397;-60
2023/07/05 04:47:16;;;;;;;11.77;9.48;;;;;;;;;;5059563;28;20032;-60
2023/07/05 04:49:41;;;;;;;11.93;9.65;;;;;;;;;;5033411;28;20036;-63
2023/07/05 04:52:07;;;;;;;13.52;10.40;;;;;;;;;;5059980;28;20044;-63
2023/07/05 04:54:32;;;;;;;15.15;11.75;;;;;;;;;;5058754;28;20044;-66
2023/07/05 04:56:57;;;;;;;14.55;10.93;;;;;;;;;;5058202;28;20048;-62
2023/07/05 04:59:22;;;;;;;15.53;11.43;;;;;;;;;;5041971;28;20094;-62
2023/07/05 05:01:48;;;;;;;16.90;11.70;;;;;;;;;;5059010;28;20298;-69
2023/07/05 05:04:13;;;;;;;15.18;12.30;;;;;;;;;;5059018;28;20733;-64
2023/07/05 05:06:38;;;;;;;17.53;13.47;;;;;;;;;;5058767;28;20040;-67
2023/07/05 05:09:03;;;;;;;23.10;13.60;;;;;;;;;;5059522;28;20749;-63
2023/07/05 05:11:29;;;;;;;16.90;12.67;;;;;;;;;;5058325;28;20036;-66
2023/07/05 05:13:54;;;;;;;16.35;12.30;;;;;;;;;;5057386;28;20293;-65
2023/07/05 05:16:19;;;;;;;15.67;11.80;;;;;;;;;;5057998;28;20472;-65
2023/07/05 05:18:45;;;;;;;17.23;11.90;;;;;;;;;;5058927;28;20374;-64
2023/07/05 05:21:10;;;;;;;17.35;11.75;;;;;;;;;;5057546;28;20075;-65
2023/07/05 05:23:35;;;;;;;15.77;11.75;;;;;;;;;;5057706;28;20048;-66
2023/07/05 05:26:01;;;;;;;18.15;12.10;;;;;;;;;;5056543;28;20102;-66
2023/07/05 05:28:26;;;;;;;16.70;12.20;;;;;;;;;;5057989;28;20046;-64
2023/07/05 05:30:52;;;;;;;14.32;11.98;;;;;;;;;;5058462;28;20453;-66
2023/07/05 05:33:17;;;;;;;17.67;12.25;;;;;;;;;;5058608;28;20120;-65
2023/07/05 05:35:49;;;;;;;16.00;12.85;;;;;;;;;;5057528;28;20094;-64
2023/07/05 05:38:15;;;;;;;16.17;11.63;;;;;;;;;;5039830;28;20047;-66
2023/07/05 05:40:40;;;;;;;17.30;11.63;;;;;;;;;;5057027;28;20116;-63
2023/07/05 05:43:05;;;;;;;17.10;12.53;;;;;;;;;;5056973;28;20040;-65
2023/07/05 05:45:30;;;;;;;15.80;10.97;;;;;;;;;;5054949;28;20047;-64
2023/07/05 05:47:56;;;;;;;17.10;12.47;;;;;;;;;;5039231;28;20246;-63
2023/07/05 05:50:22;;;;;;;18.90;12.50;;;;;;;;;;5056724;28;20821;-64
2023/07/05 05:52:48;;;;;;;17.27;12.85;;;;;;;;;;5057603;28;20719;-65
2023/07/05 05:55:13;;;;;;;16.17;12.02;;;;;;;;;;5056655;28;20127;-66
2023/07/05 05:57:38;;;;;;;18.48;12.55;;;;;;;;;;5063979;28;20040;-65
2023/07/05 06:00:06;;;;;;;17.73;11.98;;;;;;;;;;5064046;28;20428;-63
2023/07/05 06:02:32;;;;;;;17.42;12.55;;;;;;;;;;5046032;28;20033;-64
2023/07/05 06:04:57;;;;;;;18.20;12.10;;;;;;;;;;5055997;28;20116;-67
2023/07/05 06:07:22;;;;;;;16.00;12.33;;;;;;;;;;5058945;28;20170;-63
2023/07/05 06:09:48;;;;;;;17.47;13.23;;;;;;;;;;5060653;28;20068;-67
2023/07/05 06:12:13;;;;;;;16.00;12.30;;;;;;;;;;5059447;28;20667;-66
2023/07/05 06:14:38;;;;;;;17.88;13.93;;;;;;;;;;5048116;28;20538;-66
2023/07/05 06:17:04;;;;;;;18.75;13.48;;;;;;;;;;5045042;28;20476;-66
2023/07/05 06:19:29;;;;;;;20.30;13.75;;;;;;;;;;5062970;28;20040;-66
2023/07/05 06:21:54;;;;;;;17.87;13.40;;;;;;;;;;5060749;28;20064;-67
2023/07/05 06:24:20;;;;;;;16.48;12.07;;;;;;;;;;5061500;28;20297;-65
2023/07/05 06:26:45;;;;;;;17.07;12.23;;;;;;;;;;5051719;28;20350;-64
2023/07/05 06:29:10;;;;;;;17.97;12.17;;;;;;;;;;5063049;28;20047;-64
2023/07/05 06:31:35;;;;;;;17.10;12.13;;;;;;;;;;5059032;28;20385;-64
2023/07/05 06:34:01;;;;;;;15.90;11.30;;;;;;;;;;5060955;28;20444;-65
2023/07/05 06:36:26;;;;;;;14.40;11.33;;;;;;;;;;5039626;28;20055;-64
2023/07/05 06:38:51;;;;;;;14.68;11.45;;;;;;;;;;5056009;28;20377;-65
2023/07/05 06:41:17;;;;;;;14.63;11.00;;;;;;;;;;5058453;28;20608;-62
2023/07/05 06:43:43;;;;;;;12.30;10.20;;;;;;;;;;5041087;28;20147;-63
2023/07/05 06:46:08;;;;;;;14.45;10.38;;;;;;;;;;5055298;28;20102;-62
2023/07/05 06:48:34;;;;;;;13.52;10.48;;;;;;;;;;5048584;28;20512;-63
2023/07/05 06:50:59;;;;;;;15.70;10.13;;;;;;;;;;5040643;28;20097;-62
2023/07/05 06:53:25;;;;;;;14.57;10.30;;;;;;;;;;5057904;28;20101;-63
2023/07/05 06:55:50;;;;;;;15.70;10.13;;;;;;;;;;5036151;28;20152;-62
2023/07/05 06:58:16;;;;;;;14.52;10.20;;;;;;;;;;5039199;28;20035;-61
2023/07/05 07:00:42;;;;;;;14.68;9.70;;;;;;;;;;5045110;28;20528;-63
2023/07/05 07:03:08;;;;;;;14.93;9.70;;;;;;;;;;5038990;28;20036;-61
2023/07/05 07:05:33;;;;;;;10.95;9.30;;;;;;;;;;5056905;28;20067;-62
2023/07/05 07:07:59;;;;;;;12.27;9.18;;;;;;;;;;5056200;28;20040;-60
2023/07/05 07:10:24;;;;;;;10.88;8.93;;;;;;;;;;5021077;28;20108;-62
2023/07/05 07:12:49;;;;;;;12.05;9.35;;;;;;;;;;5056782;28;20045;-64
2023/07/05 07:15:15;;;;;;;9.83;8.70;;;;;;;;;;5056203;28;20076;-62
2023/07/05 07:17:40;;;;;;;12.13;9.25;;;;;;;;;;5055566;28;20048;-62
2023/07/05 07:20:07;;;;;;;10.97;9.10;;;;;;;;;;5056774;28;20028;-62
2023/07/05 07:22:32;;;;;;;11.75;9.13;;;;;;;;;;5055720;28;20302;-63
2023/07/05 07:24:58;;;;;;;12.68;8.70;;;;;;;;;;5035183;28;20611;-62
2023/07/05 07:27:23;;;;;;;12.30;8.80;;;;;;;;;;5018069;28;20040;-65
2023/07/05 07:29:51;;;;;;;12.05;9.15;;;;;;;;;;5056065;28;20127;-65
2023/07/05 07:32:16;;;;;;;11.38;8.63;;;;;;;;;;5034675;28;20582;-64
2023/07/05 07:34:42;;;;;;;11.90;8.93;;;;;;;;;;5040654;28;21527;-63
2023/07/05 07:37:07;;;;;;;11.30;8.88;;;;;;;;;;5055105;28;20519;-64
2023/07/05 07:39:32;;;;;;;12.60;8.77;;;;;;;;;;5053429;28;20037;-63
2023/07/05 07:41:58;;;;;;;12.67;8.47;;;;;;;;;;5054148;28;20097;-63
2023/07/05 07:44:23;;;;;;;12.33;8.93;;;;;;;;;;5055212;28;20127;-62
2023/07/05 07:46:48;;;;;;;10.40;8.63;;;;;;;;;;5032345;28;20297;-62
2023/07/05 07:49:13;;;;;;;9.80;8.00;;;;;;;;;;5058209;28;20501;-63
2023/07/05 07:51:39;;;;;;;11.82;8.55;;;;;;;;;;5060390;28;20495;-64
2023/07/05 07:54:05;;;;;;;10.77;8.40;;;;;;;;;;5035717;28;20478;-64
2023/07/05 07:56:31;;;;;;;12.68;8.50;;;;;;;;;;5030108;28;20535;-64
2023/07/05 07:58:56;;;;;;;12.55;9.20;;;;;;;;;;5068617;28;20154;-63
2023/07/05 08:01:25;;;;;;;9.77;8.43;;;;;;;;;;5059282;28;20102;-65
2023/07/05 08:03:51;;;;;;;12.73;9.32;;;;;;;;;;5050321;28;20033;-63
2023/07/05 08:06:16;;;;;;;12.80;8.68;;;;;;;;;;5062716;28;20047;-64
2023/07/05 08:08:41;;;;;;;10.90;8.57;;;;;;;;;;5050262;28;20516;-60
2023/07/05 08:11:08;;;;;;;9.77;8.30;;;;;;;;;;5068444;28;20056;-63
2023/07/05 08:13:33;;;;;;;9.40;8.35;;;;;;;;;;5061640;28;20568;-68
2023/07/05 08:15:58;;;;;;;12.02;8.98;;;;;;;;;;5064259;28;20175;-62
2023/07/05 08:18:24;;;;;;;12.73;8.83;;;;;;;;;;5053821;28;20094;-63
2023/07/05 08:20:49;;;;;;;10.47;8.53;;;;;;;;;;5048236;28;20291;-65
2023/07/05 08:23:14;;;;;;;10.23;8.40;;;;;;;;;;5058218;28;20036;-64
2023/07/05 08:25:39;;;;;;;10.93;8.60;;;;;;;;;;5063271;28;20283;-64
2023/07/05 08:28:05;;;;;;;11.45;8.77;;;;;;;;;;5050348;28;20067;-63
2023/07/05 08:30:31;;;;;;;11.85;8.73;;;;;;;;;;5059819;28;20090;-64
2023/07/05 08:32:57;;;;;;;10.48;8.93;;;;;;;;;;5061737;28;20041;-63
2023/07/05 08:35:22;;;;;;;11.60;8.88;;;;;;;;;;5047927;28;20181;-65
2023/07/05 08:37:48;;;;;;;12.30;8.80;;;;;;;;;;5042546;28;20597;-66
2023/07/05 08:40:14;;;;;;;10.25;8.10;;;;;;;;;;5050089;28;20036;-64
2023/07/05 08:42:47;;;;;;;11.80;8.98;;;;;;;;;;5067095;28;20058;-63
2023/07/05 08:45:14;;;;;;;9.13;7.85;;;;;;;;;;5066148;28;20102;-66
2023/07/05 08:47:44;;;;;;;9.73;8.70;;;;;;;;;;5067240;28;20117;-65
2023/07/05 08:50:14;;;;;;;11.25;8.23;;;;;;;;;;5063580;28;20040;-66
2023/07/05 08:52:43;;;;;;;11.35;8.57;;;;;;;;;;5033715;28;20063;-66
2023/07/05 08:55:18;;;;;;;9.85;8.30;;;;;;;;;;5062303;28;20033;-61
2023/07/05 08:57:50;;;;;;;10.95;8.88;;;;;;;;;;5035762;28;20032;-61
2023/07/05 09:00:17;;;;;;;10.05;8.40;;;;;;;;;;5046212;28;20041;-62
2023/07/05 09:02:42;;;;;;;10.75;8.65;;;;;;;;;;5055857;28;20146;-62
2023/07/05 09:05:21;;;;;;;10.77;8.30;;;;;;;;;;5061781;28;20500;-65
2023/07/05 09:07:49;;;;;;;11.65;8.52;;;;;;;;;;5060190;28;20029;-63
2023/07/05 09:10:28;;;;;;;10.63;8.85;;;;;;;;;;5060157;28;20130;-63
2023/07/05 09:13:12;;;;;;;11.65;8.38;;;;;;;;;;5047064;28;20123;-62
2023/07/05 09:15:42;;;;;;;10.85;8.40;;;;;;;;;;5055454;28;20052;-62
2023/07/05 09:18:14;;;;;;;10.30;8.60;;;;;;;;;;5044673;28;20032;-62
2023/07/05 09:20:44;;;;;;;10.38;8.20;;;;;;;;;;5064766;28;20037;-65
2023/07/05 09:23:16;;;;;;;10.63;8.05;;;;;;;;;;5049061;28;20033;-62
2023/07/05 09:25:42;;;;;;;12.23;8.00;;;;;;;;;;5065158;28;20052;-61
2023/07/05 09:28:11;;;;;;;10.85;8.35;;;;;;;;;;5065816;28;20041;-61
2023/07/05 09:30:36;;;;;;;9.52;8.43;;;;;;;;;;5046722;28;20060;-61
2023/07/05 09:33:02;;;;;;;9.77;7.83;;;;;;;;;;5065894;28;20037;-61
2023/07/05 09:35:28;;;;;;;8.45;7.53;;;;;;;;;;5063688;28;20317;-62
2023/07/05 09:38:12;;;;;;;11.15;7.70;;;;;;;;;;5044430;28;20045;-62
2023/07/05 09:40:42;;;;;;;9.60;7.25;;;;;;;;;;5063083;28;20028;-61
2023/07/05 09:43:11;;;;;;;9.43;7.53;;;;;;;;;;5037233;28;20040;-62
2023/07/05 09:45:36;;;;;;;10.80;8.27;;;;;;;;;;5061735;28;20036;-61
2023/07/05 09:48:03;;;;;;;8.10;7.20;;;;;;;;;;5061960;28;20543;-61
2023/07/05 09:50:28;;;;;;;9.32;7.00;;;;;;;;;;5064303;28;20976;-61
2023/07/05 09:53:00;;;;;;;8.40;6.78;;;;;;;;;;5062499;28;20292;-60
2023/07/05 09:55:26;;;;;;;8.25;6.50;;;;;;;;;;5063700;28;20036;-61
2023/07/05 09:57:52;;;;;;;8.55;6.88;;;;;;;;;;5043057;28;20468;-61
2023/07/05 10:00:33;;;;;;;8.57;7.10;;;;;;;;;;5060570;28;20017;-61
2023/07/05 10:03:06;;;;;;;9.48;7.00;;;;;;;;;;5059463;28;20075;-59
2023/07/05 10:05:31;;;;;;;7.60;6.68;;;;;;;;;;5063291;28;21211;-62
2023/07/05 10:07:58;;;;;;;8.47;6.77;;;;;;;;;;5059004;28;20040;-62
2023/07/05 10:10:24;;;;;;;8.55;6.93;;;;;;;;;;5045468;28;20294;-61
2023/07/05 10:12:51;;;;;;;9.57;7.10;;;;;;;;;;5040973;28;20181;-61
2023/07/05 10:15:19;;;;;;;9.35;6.38;;;;;;;;;;5059844;28;20508;-62
2023/07/05 10:17:45;;;;;;;11.13;7.23;;;;;;;;;;5029442;28;20076;-60
2023/07/05 10:20:26;;;;;;;7.68;6.82;;;;;;;;;;5042114;28;20500;-61
2023/07/05 10:22:59;;;;;;;9.82;7.00;;;;;;;;;;5058546;28;20139;-62
2023/07/05 10:25:24;;;;;;;7.57;6.82;;;;;;;;;;5062353;28;20085;-61
2023/07/05 10:27:50;;;;;;;8.20;6.82;;;;;;;;;;5060913;28;20040;-60
2023/07/05 10:30:19;;;;;;;9.50;7.13;;;;;;;;;;5056950;28;20120;-61
2023/07/05 10:32:45;;;;;;;8.38;6.95;;;;;;;;;;5025719;28;20287;-65
2023/07/05 10:35:26;;;;;;;8.55;6.93;;;;;;;;;;5065265;28;20053;-64
2023/07/05 10:37:51;;;;;;;8.93;7.18;;;;;;;;;;5047458;28;20123;-62
2023/07/05 10:40:17;;;;;;;9.18;7.47;;;;;;;;;;5057808;28;20413;-64
2023/07/05 10:42:48;;;;;;;7.75;6.68;;;;;;;;;;5063056;28;20571;-67
2023/07/05 10:45:14;;;;;;;7.97;7.07;;;;;;;;;;5064119;28;20086;-62
2023/07/05 10:47:39;;;;;;;8.23;6.80;;;;;;;;;;5037175;28;20068;-66
2023/07/05 10:50:05;;;;;;;10.10;7.20;;;;;;;;;;5046954;28;20032;-66
2023/07/05 10:52:31;;;;;;;9.30;7.45;;;;;;;;;;5044351;28;20054;-65
2023/07/05 10:55:17;;;;;;;8.82;7.30;;;;;;;;;;5043932;28;20536;-64
2023/07/05 10:57:43;;;;;;;9.30;7.15;;;;;;;;;;5064834;28;20437;-63
2023/07/05 11:00:14;;;;;;;7.60;6.80;;;;;;;;;;5057206;28;20045;-62
2023/07/05 11:02:46;;;;;;;8.98;6.65;;;;;;;;;;5046419;28;20444;-62
2023/07/05 11:05:20;;;;;;;8.52;7.35;;;;;;;;;;5040297;28;20029;-64
2023/07/05 11:07:45;;;;;;;11.15;7.20;;;;;;;;;;5062252;28;20040;-63
2023/07/05 11:10:14;;;;;;;9.93;7.22;;;;;;;;;;5062026;28;20039;-62
2023/07/05 11:12:41;;;;;;;9.45;7.18;;;;;;;;;;5062368;28;20059;-62
2023/07/05 11:15:07;;;;;;;9.75;7.00;;;;;;;;;;5064845;28;20059;-65
2023/07/05 11:17:33;;;;;;;8.60;7.25;;;;;;;;;;5044111;28;20024;-67
2023/07/05 11:19:59;;;;;;;9.70;7.47;;;;;;;;;;5043531;28;20409;-68
2023/07/05 11:22:43;;;;;;;8.23;6.82;;;;;;;;;;5063340;28;20012;-65
2023/07/05 11:25:10;;;;;;;8.52;6.97;;;;;;;;;;5063610;28;20036;-66
2023/07/05 11:27:35;;;;;;;9.27;7.20;;;;;;;;;;5042751;28;20036;-68
2023/07/05 11:30:00;;;;;;;9.20;6.65;;;;;;;;;;5063185;28;20041;-65
2023/07/05 11:32:45;;;;;;;9.88;6.38;;;;;;;;;;5060958;28;20506;-66
2023/07/05 11:35:10;;;;;;;9.00;5.50;;;;;;;;;;5063941;28;20496;-67
2023/07/05 11:37:39;;;;;;;6.93;5.33;;;;;;;;;;5060904;28;20043;-62
2023/07/05 11:40:12;;;;;;;7.10;5.27;;;;;;;;;;5037793;28;20287;-63
2023/07/05 11:42:37;;;;;;;9.43;5.07;;;;;;;;;;5042366;28;20125;-65
2023/07/05 11:45:05;;;;;;;6.93;4.85;;;;;;;;;;5063457;28;20555;-65
2023/07/05 11:47:33;;;;;;;7.65;5.10;;;;;;;;;;5054997;28;20044;-65
2023/07/05 11:50:06;;;;;;;8.15;5.13;;;;;;;;;;5061861;28;20086;-63
2023/07/05 11:52:35;;;;;;;6.85;4.97;;;;;;;;;;5057339;28;20469;-65
2023/07/05 11:55:15;;;;;;;5.95;4.55;;;;;;;;;;5023273;28;20405;-64
2023/07/05 11:57:42;;;;;;;6.28;4.43;;;;;;;;;;5057021;28;20428;-67
2023/07/05 12:00:18;;;;;;;6.50;4.45;;;;;;;;;;5057579;28;20455;-65
2023/07/05 12:02:59;;;;;;;7.22;4.72;;;;;;;;;;5040085;28;20040;-63
2023/07/05 12:05:26;;;;;;;7.43;4.90;;;;;;;;;;5033748;28;20524;-63
2023/07/05 12:07:52;;;;;;;7.75;4.22;;;;;;;;;;5060386;28;20033;-66
2023/07/05 12:10:19;;;;;;;7.25;3.90;;;;;;;;;;5040231;28;20080;-66
2023/07/05 12:12:44;;;;;;;4.80;3.83;;;;;;;;;;5058081;28;20055;-66
2023/07/05 12:15:10;;;;;;;5.63;3.72;;;;;;;;;;5058054;28;20502;-64
2023/07/05 12:17:37;;;;;;;5.38;3.95;;;;;;;;;;5054771;28;20036;-63
2023/07/05 12:20:07;;;;;;;6.28;4.05;;;;;;;;;;5055403;28;20084;-67
2023/07/05 12:22:32;;;;;;;6.03;4.18;;;;;;;;;;5056167;28;20094;-64
2023/07/05 12:24:57;;;;;;;8.73;4.17;;;;;;;;;;5056239;28;20044;-65
2023/07/05 12:27:27;;;;;;;5.97;4.10;;;;;;;;;;5054860;28;20041;-68
2023/07/05 12:29:53;;;;;;;7.03;4.35;;;;;;;;;;5040135;28;20313;-63
2023/07/05 12:32:20;;;;;;;8.00;4.65;;;;;;;;;;5055522;28;20634;-65
2023/07/05 12:34:45;;;;;;;7.82;4.82;;;;;;;;;;5060738;28;20061;-62
2023/07/05 12:37:10;;;;;;;12.82;5.60;;;;;;;;;;5063668;28;20125;-60
2023/07/05 12:39:38;;;;;;;9.07;5.53;;;;;;;;;;5057688;28;20463;-62
2023/07/05 12:42:08;;;;;;;8.40;4.93;;;;;;;;;;5060340;28;20341;-62
2023/07/05 12:44:34;;;;;;;7.35;5.00;;;;;;;;;;5060916;28;20041;-62
2023/07/05 12:47:12;;;;;;;8.63;5.05;;;;;;;;;;5058721;28;20042;-62
2023/07/05 12:49:37;;;;;;;7.18;5.18;;;;;;;;;;5041925;28;20036;-63
2023/07/05 12:52:03;;;;;;;7.38;5.60;;;;;;;;;;5059165;28;20031;-63
2023/07/05 12:54:28;;;;;;;7.65;4.95;;;;;;;;;;5042825;28;20032;-62
2023/07/05 12:56:54;;;;;;;7.68;5.50;;;;;;;;;;5039925;28;21743;-65
2023/07/05 12:59:19;;;;;;;7.63;5.47;;;;;;;;;;5058048;28;20024;-63
2023/07/05 13:01:47;;;;;;;9.33;5.70;;;;;;;;;;5059479;28;20039;-65
2023/07/05 13:04:13;;;;;;;9.20;6.20;;;;;;;;;;5059857;28;20974;-62
2023/07/05 13:06:38;;;;;;;8.45;5.63;;;;;;;;;;5060623;28;20046;-61
2023/07/05 13:09:04;;;;;;;10.02;5.88;;;;;;;;;;5057482;28;20041;-62
2023/07/05 13:11:30;;;;;;;8.50;6.28;;;;;;;;;;5047720;28;20047;-64
2023/07/05 13:13:58;;;;;;;9.50;7.25;;;;;;;;;;5049416;28;20037;-62
2023/07/05 13:16:28;;;;;;;8.85;6.75;;;;;;;;;;5054689;28;20076;-61
2023/07/05 13:19:21;;;;;;;9.47;6.93;;;;;;;;;;5053391;28;20032;-61
2023/07/05 13:21:47;;;;;;;10.98;6.57;;;;;;;;;;5045528;28;20274;-62
2023/07/05 13:24:31;;;;;;;10.75;7.30;;;;;;;;;;5049270;28;20441;-60
2023/07/05 13:26:56;;;;;;;9.65;6.55;;;;;;;;;;5049830;28;20040;-62
2023/07/05 13:29:25;;;;;;;10.07;6.95;;;;;;;;;;5041306;28;20036;-63
2023/07/05 13:31:50;;;;;;;11.10;6.88;;;;;;;;;;5066633;28;20040;-61
2023/07/05 13:34:16;;;;;;;11.52;7.88;;;;;;;;;;5066928;28;20047;-62
2023/07/05 13:36:42;;;;;;;10.75;7.65;;;;;;;;;;5035495;28;20076;-62
2023/07/05 13:39:11;;;;;;;11.27;8.30;;;;;;;;;;5053931;28;20068;-62
2023/07/05 13:41:36;;;;;;;13.25;8.15;;;;;;;;;;5066102;28;20110;-63
2023/07/05 13:44:02;;;;;;;13.63;8.43;;;;;;;;;;5047139;28;20032;-62
2023/07/05 13:46:27;;;;;;;12.05;8.15;;;;;;;;;;5056017;28;20095;-60
2023/07/05 13:48:52;;;;;;;10.57;8.15;;;;;;;;;;5053013;28;20098;-62
2023/07/05 13:51:26;;;;;;;12.87;8.70;;;;;;;;;;5066164;28;20033;-62
2023/07/05 13:53:51;;;;;;;12.13;8.35;;;;;;;;;;5061797;28;20397;-63
2023/07/05 13:56:16;;;;;;;12.40;8.20;;;;;;;;;;5048488;28;20489;-61
2023/07/05 13:58:41;;;;;;;12.23;8.67;;;;;;;;;;5059455;28;20657;-64
2023/07/05 14:01:08;;;;;;;12.40;8.57;;;;;;;;;;5046087;28;20282;-61
2023/07/05 14:03:33;;;;;;;12.32;7.97;;;;;;;;;;5060677;28;20275;-62
2023/07/05 14:05:58;;;;;;;12.55;8.40;;;;;;;;;;5048079;28;20090;-63
2023/07/05 14:08:25;;;;;;;10.77;8.33;;;;;;;;;;5065236;28;20064;-61
2023/07/05 14:10:52;;;;;;;11.80;8.27;;;;;;;;;;5056519;28;20287;-62
2023/07/05 14:13:19;;;;;;;11.20;7.57;;;;;;;;;;5045893;28;20063;-62
2023/07/05 14:15:44;;;;;;;12.07;8.10;;;;;;;;;;5047591;28;20801;-62
2023/07/05 14:18:12;;;;;;;13.00;7.78;;;;;;;;;;5064767;28;20032;-62
2023/07/05 14:20:38;;;;;;;13.45;8.18;;;;;;;;;;5066102;28;20552;-61
2023/07/05 14:23:04;;;;;;;10.30;7.80;;;;;;;;;;5056239;28;20040;-62
2023/07/05 14:25:32;;;;;;;10.07;7.78;;;;;;;;;;5058749;28;20421;-61
2023/07/05 14:27:57;;;;;;;11.63;8.45;;;;;;;;;;5065473;28;20040;-61
2023/07/05 14:30:23;;;;;;;12.07;8.13;;;;;;;;;;5035486;28;20044;-62